sensor_id;sensor_type;location;lat;lon;timestamp;P1;durP1;ratioP1;P2;durP2;ratioP2
35225;SDS011;21813;49.686;21.766;2022-12-07T00:01:39;13.45;;;8.27;;
35225;SDS011;21813;49.686;21.766;2022-12-07T00:04:07;12.50;;;8.38;;
35225;SDS011;21813;49.686;21.766;2022-12-07T00:06:37;13.07;;;7.72;;
35225;SDS011;21813;49.686;21.766;2022-12-07T00:09:09;11.98;;;8.57;;
35225;SDS011;21813;49.686;21.766;2022-12-07T00:11:39;12.48;;;8.27;;
35225;SDS011;21813;49.686;21.766;2022-12-07T00:14:06;14.63;;;8.05;;
35225;SDS011;21813;49.686;21.766;2022-12-07T00:16:34;9.38;;;7.20;;
35225;SDS011;21813;49.686;21.766;2022-12-07T00:19:00;11.40;;;7.13;;
35225;SDS011;21813;49.686;21.766;2022-12-07T00:21:29;18.30;;;8.38;;
35225;SDS011;21813;49.686;21.766;2022-12-07T00:23:56;19.67;;;10.73;;
35225;SDS011;21813;49.686;21.766;2022-12-07T00:26:25;17.08;;;8.98;;
35225;SDS011;21813;49.686;21.766;2022-12-07T00:28:57;18.92;;;9.63;;
35225;SDS011;21813;49.686;21.766;2022-12-07T00:31:26;15.88;;;8.82;;
35225;SDS011;21813;49.686;21.766;2022-12-07T00:33:54;15.93;;;9.02;;
35225;SDS011;21813;49.686;21.766;2022-12-07T00:36:24;12.77;;;8.32;;
35225;SDS011;21813;49.686;21.766;2022-12-07T00:38:50;14.73;;;8.80;;
35225;SDS011;21813;49.686;21.766;2022-12-07T00:41:18;11.73;;;7.25;;
35225;SDS011;21813;49.686;21.766;2022-12-07T00:43:46;12.13;;;7.35;;
35225;SDS011;21813;49.686;21.766;2022-12-07T00:46:15;12.55;;;7.55;;
35225;SDS011;21813;49.686;21.766;2022-12-07T00:48:41;35.80;;;17.83;;
35225;SDS011;21813;49.686;21.766;2022-12-07T00:51:12;38.40;;;20.23;;
35225;SDS011;21813;49.686;21.766;2022-12-07T00:53:39;35.35;;;17.92;;
35225;SDS011;21813;49.686;21.766;2022-12-07T00:56:07;33.90;;;18.63;;
35225;SDS011;21813;49.686;21.766;2022-12-07T00:58:36;33.55;;;18.15;;
35225;SDS011;21813;49.686;21.766;2022-12-07T01:01:42;35.90;;;19.15;;
35225;SDS011;21813;49.686;21.766;2022-12-07T01:04:16;36.97;;;20.40;;
35225;SDS011;21813;49.686;21.766;2022-12-07T01:06:42;34.42;;;20.00;;
35225;SDS011;21813;49.686;21.766;2022-12-07T01:09:09;34.13;;;18.77;;
35225;SDS011;21813;49.686;21.766;2022-12-07T01:11:35;27.20;;;16.27;;
35225;SDS011;21813;49.686;21.766;2022-12-07T01:14:02;31.70;;;17.80;;
35225;SDS011;21813;49.686;21.766;2022-12-07T01:16:29;35.55;;;19.17;;
35225;SDS011;21813;49.686;21.766;2022-12-07T01:18:58;34.13;;;20.98;;
35225;SDS011;21813;49.686;21.766;2022-12-07T01:21:26;34.50;;;20.10;;
35225;SDS011;21813;49.686;21.766;2022-12-07T01:23:57;41.20;;;22.88;;
35225;SDS011;21813;49.686;21.766;2022-12-07T01:26:23;37.25;;;19.52;;
35225;SDS011;21813;49.686;21.766;2022-12-07T01:28:50;33.88;;;20.38;;
35225;SDS011;21813;49.686;21.766;2022-12-07T01:31:18;34.10;;;18.55;;
35225;SDS011;21813;49.686;21.766;2022-12-07T01:33:47;31.10;;;17.88;;
35225;SDS011;21813;49.686;21.766;2022-12-07T01:38:41;37.15;;;20.13;;
35225;SDS011;21813;49.686;21.766;2022-12-07T01:41:08;28.30;;;17.67;;
35225;SDS011;21813;49.686;21.766;2022-12-07T01:43:34;31.52;;;18.20;;
35225;SDS011;21813;49.686;21.766;2022-12-07T01:46:01;30.10;;;18.45;;
35225;SDS011;21813;49.686;21.766;2022-12-07T01:48:32;29.15;;;17.92;;
35225;SDS011;21813;49.686;21.766;2022-12-07T01:51:10;33.20;;;18.70;;
35225;SDS011;21813;49.686;21.766;2022-12-07T01:53:40;34.17;;;18.85;;
35225;SDS011;21813;49.686;21.766;2022-12-07T01:56:09;32.35;;;17.50;;
35225;SDS011;21813;49.686;21.766;2022-12-07T01:58:42;33.20;;;17.98;;
35225;SDS011;21813;49.686;21.766;2022-12-07T02:01:09;30.92;;;19.25;;
35225;SDS011;21813;49.686;21.766;2022-12-07T02:03:41;35.05;;;19.67;;
35225;SDS011;21813;49.686;21.766;2022-12-07T02:06:08;33.47;;;20.05;;
35225;SDS011;21813;49.686;21.766;2022-12-07T02:08:39;28.65;;;17.85;;
35225;SDS011;21813;49.686;21.766;2022-12-07T02:11:06;30.90;;;17.63;;
35225;SDS011;21813;49.686;21.766;2022-12-07T02:13:35;34.50;;;18.45;;
35225;SDS011;21813;49.686;21.766;2022-12-07T02:16:07;31.42;;;18.02;;
35225;SDS011;21813;49.686;21.766;2022-12-07T02:21:40;33.10;;;20.52;;
35225;SDS011;21813;49.686;21.766;2022-12-07T02:24:14;30.55;;;19.65;;
35225;SDS011;21813;49.686;21.766;2022-12-07T02:47:32;23.58;;;13.98;;
35225;SDS011;21813;49.686;21.766;2022-12-07T02:50:01;22.77;;;14.57;;
35225;SDS011;21813;49.686;21.766;2022-12-07T02:52:30;27.23;;;14.85;;
35225;SDS011;21813;49.686;21.766;2022-12-07T02:54:59;21.42;;;12.55;;
35225;SDS011;21813;49.686;21.766;2022-12-07T02:57:36;21.85;;;13.82;;
35225;SDS011;21813;49.686;21.766;2022-12-07T03:00:24;26.02;;;13.85;;
35225;SDS011;21813;49.686;21.766;2022-12-07T03:03:00;22.52;;;13.05;;
35225;SDS011;21813;49.686;21.766;2022-12-07T03:11:16;19.88;;;11.95;;
35225;SDS011;21813;49.686;21.766;2022-12-07T03:14:05;17.17;;;11.40;;
35225;SDS011;21813;49.686;21.766;2022-12-07T03:17:03;17.23;;;11.02;;
35225;SDS011;21813;49.686;21.766;2022-12-07T03:19:57;20.75;;;11.77;;
35225;SDS011;21813;49.686;21.766;2022-12-07T03:22:30;20.63;;;11.43;;
35225;SDS011;21813;49.686;21.766;2022-12-07T03:25:09;20.33;;;11.45;;
35225;SDS011;21813;49.686;21.766;2022-12-07T03:27:52;21.23;;;12.77;;
35225;SDS011;21813;49.686;21.766;2022-12-07T03:34:06;17.38;;;11.32;;
35225;SDS011;21813;49.686;21.766;2022-12-07T03:36:48;16.13;;;10.70;;
35225;SDS011;21813;49.686;21.766;2022-12-07T03:39:24;18.20;;;11.68;;
35225;SDS011;21813;49.686;21.766;2022-12-07T03:41:59;16.20;;;10.35;;
35225;SDS011;21813;49.686;21.766;2022-12-07T03:44:29;19.70;;;11.95;;
35225;SDS011;21813;49.686;21.766;2022-12-07T03:47:09;17.70;;;10.23;;
35225;SDS011;21813;49.686;21.766;2022-12-07T03:55:17;20.80;;;10.93;;
35225;SDS011;21813;49.686;21.766;2022-12-07T03:57:46;14.32;;;8.30;;
35225;SDS011;21813;49.686;21.766;2022-12-07T04:00:15;14.25;;;8.75;;
35225;SDS011;21813;49.686;21.766;2022-12-07T04:02:56;11.98;;;7.70;;
35225;SDS011;21813;49.686;21.766;2022-12-07T04:08:02;14.27;;;8.13;;
35225;SDS011;21813;49.686;21.766;2022-12-07T04:16:55;9.48;;;7.13;;
35225;SDS011;21813;49.686;21.766;2022-12-07T04:19:54;9.90;;;6.55;;
35225;SDS011;21813;49.686;21.766;2022-12-07T04:22:43;9.95;;;6.70;;
35225;SDS011;21813;49.686;21.766;2022-12-07T04:25:31;9.05;;;6.70;;
35225;SDS011;21813;49.686;21.766;2022-12-07T04:32:33;8.63;;;6.47;;
35225;SDS011;21813;49.686;21.766;2022-12-07T04:35:14;9.75;;;6.88;;
35225;SDS011;21813;49.686;21.766;2022-12-07T04:37:56;10.88;;;7.60;;
35225;SDS011;21813;49.686;21.766;2022-12-07T04:40:37;11.27;;;7.72;;
35225;SDS011;21813;49.686;21.766;2022-12-07T04:43:04;14.88;;;9.15;;
35225;SDS011;21813;49.686;21.766;2022-12-07T04:45:31;11.15;;;7.20;;
35225;SDS011;21813;49.686;21.766;2022-12-07T04:47:59;10.98;;;7.88;;
35225;SDS011;21813;49.686;21.766;2022-12-07T04:50:25;13.23;;;8.43;;
35225;SDS011;21813;49.686;21.766;2022-12-07T04:52:53;14.05;;;9.18;;
35225;SDS011;21813;49.686;21.766;2022-12-07T04:55:20;12.18;;;8.43;;
35225;SDS011;21813;49.686;21.766;2022-12-07T04:57:46;17.08;;;9.00;;
35225;SDS011;21813;49.686;21.766;2022-12-07T05:00:12;10.60;;;8.07;;
35225;SDS011;21813;49.686;21.766;2022-12-07T05:02:39;10.73;;;8.07;;
35225;SDS011;21813;49.686;21.766;2022-12-07T05:05:05;10.75;;;8.05;;
35225;SDS011;21813;49.686;21.766;2022-12-07T05:07:35;13.55;;;9.07;;
35225;SDS011;21813;49.686;21.766;2022-12-07T05:10:01;11.13;;;8.43;;
35225;SDS011;21813;49.686;21.766;2022-12-07T05:12:28;13.82;;;9.30;;
35225;SDS011;21813;49.686;21.766;2022-12-07T05:14:53;13.20;;;8.60;;
35225;SDS011;21813;49.686;21.766;2022-12-07T05:17:20;13.48;;;9.00;;
35225;SDS011;21813;49.686;21.766;2022-12-07T05:19:45;12.43;;;9.57;;
35225;SDS011;21813;49.686;21.766;2022-12-07T05:22:12;16.33;;;10.23;;
35225;SDS011;21813;49.686;21.766;2022-12-07T05:24:38;15.15;;;9.85;;
35225;SDS011;21813;49.686;21.766;2022-12-07T05:27:05;13.23;;;10.13;;
35225;SDS011;21813;49.686;21.766;2022-12-07T05:29:31;12.63;;;10.65;;
35225;SDS011;21813;49.686;21.766;2022-12-07T05:31:58;13.18;;;9.32;;
35225;SDS011;21813;49.686;21.766;2022-12-07T05:34:24;13.60;;;10.05;;
35225;SDS011;21813;49.686;21.766;2022-12-07T05:36:51;14.38;;;10.35;;
35225;SDS011;21813;49.686;21.766;2022-12-07T05:39:17;16.25;;;10.02;;
35225;SDS011;21813;49.686;21.766;2022-12-07T05:41:47;15.07;;;10.77;;
35225;SDS011;21813;49.686;21.766;2022-12-07T05:44:32;16.25;;;10.68;;
35225;SDS011;21813;49.686;21.766;2022-12-07T05:46:58;13.55;;;10.18;;
35225;SDS011;21813;49.686;21.766;2022-12-07T05:49:24;17.55;;;10.48;;
35225;SDS011;21813;49.686;21.766;2022-12-07T05:51:51;15.75;;;9.57;;
35225;SDS011;21813;49.686;21.766;2022-12-07T05:54:17;14.80;;;10.02;;
35225;SDS011;21813;49.686;21.766;2022-12-07T05:56:44;15.38;;;10.73;;
35225;SDS011;21813;49.686;21.766;2022-12-07T05:59:10;16.95;;;10.02;;
35225;SDS011;21813;49.686;21.766;2022-12-07T06:01:50;11.07;;;9.13;;
35225;SDS011;21813;49.686;21.766;2022-12-07T06:04:26;15.02;;;9.57;;
35225;SDS011;21813;49.686;21.766;2022-12-07T06:09:37;13.13;;;9.02;;
35225;SDS011;21813;49.686;21.766;2022-12-07T06:12:08;15.15;;;9.63;;
35225;SDS011;21813;49.686;21.766;2022-12-07T06:14:56;14.57;;;9.32;;
35225;SDS011;21813;49.686;21.766;2022-12-07T06:17:26;14.30;;;9.35;;
35225;SDS011;21813;49.686;21.766;2022-12-07T06:19:51;12.70;;;9.52;;
35225;SDS011;21813;49.686;21.766;2022-12-07T06:22:32;10.57;;;8.55;;
35225;SDS011;21813;49.686;21.766;2022-12-07T06:24:59;10.82;;;8.65;;
35225;SDS011;21813;49.686;21.766;2022-12-07T06:27:26;12.25;;;8.95;;
35225;SDS011;21813;49.686;21.766;2022-12-07T06:29:52;10.25;;;7.68;;
35225;SDS011;21813;49.686;21.766;2022-12-07T06:32:18;12.48;;;7.82;;
35225;SDS011;21813;49.686;21.766;2022-12-07T06:34:49;10.18;;;8.32;;
35225;SDS011;21813;49.686;21.766;2022-12-07T06:37:14;8.10;;;7.18;;
35225;SDS011;21813;49.686;21.766;2022-12-07T06:40:17;11.40;;;7.85;;
35225;SDS011;21813;49.686;21.766;2022-12-07T06:48:35;9.70;;;7.47;;
35225;SDS011;21813;49.686;21.766;2022-12-07T06:51:04;10.10;;;7.85;;
35225;SDS011;21813;49.686;21.766;2022-12-07T06:53:30;10.55;;;8.02;;
35225;SDS011;21813;49.686;21.766;2022-12-07T06:55:56;9.77;;;6.72;;
35225;SDS011;21813;49.686;21.766;2022-12-07T06:58:25;12.82;;;8.50;;
35225;SDS011;21813;49.686;21.766;2022-12-07T07:01:17;11.50;;;7.50;;
35225;SDS011;21813;49.686;21.766;2022-12-07T07:03:44;10.32;;;8.00;;
35225;SDS011;21813;49.686;21.766;2022-12-07T07:06:12;10.77;;;7.82;;
35225;SDS011;21813;49.686;21.766;2022-12-07T07:08:39;12.52;;;8.73;;
35225;SDS011;21813;49.686;21.766;2022-12-07T07:11:07;12.82;;;9.57;;
35225;SDS011;21813;49.686;21.766;2022-12-07T07:13:33;13.68;;;9.32;;
35225;SDS011;21813;49.686;21.766;2022-12-07T07:16:00;15.40;;;9.55;;
35225;SDS011;21813;49.686;21.766;2022-12-07T07:18:27;11.40;;;9.07;;
35225;SDS011;21813;49.686;21.766;2022-12-07T07:20:54;14.18;;;9.75;;
35225;SDS011;21813;49.686;21.766;2022-12-07T07:23:26;12.57;;;9.25;;
35225;SDS011;21813;49.686;21.766;2022-12-07T07:25:53;22.33;;;11.15;;
35225;SDS011;21813;49.686;21.766;2022-12-07T07:28:18;16.88;;;9.55;;
35225;SDS011;21813;49.686;21.766;2022-12-07T07:30:46;15.75;;;9.25;;
35225;SDS011;21813;49.686;21.766;2022-12-07T07:33:12;14.43;;;10.25;;
35225;SDS011;21813;49.686;21.766;2022-12-07T07:35:39;26.92;;;13.95;;
35225;SDS011;21813;49.686;21.766;2022-12-07T07:38:07;26.60;;;13.68;;
35225;SDS011;21813;49.686;21.766;2022-12-07T07:40:48;21.95;;;11.32;;
35225;SDS011;21813;49.686;21.766;2022-12-07T07:43:15;26.52;;;13.25;;
35225;SDS011;21813;49.686;21.766;2022-12-07T07:45:41;16.55;;;10.63;;
35225;SDS011;21813;49.686;21.766;2022-12-07T07:48:07;16.48;;;10.38;;
35225;SDS011;21813;49.686;21.766;2022-12-07T07:50:33;14.48;;;10.25;;
35225;SDS011;21813;49.686;21.766;2022-12-07T07:53:02;15.63;;;11.00;;
35225;SDS011;21813;49.686;21.766;2022-12-07T07:55:29;12.95;;;9.38;;
35225;SDS011;21813;49.686;21.766;2022-12-07T07:57:56;11.80;;;9.05;;
35225;SDS011;21813;49.686;21.766;2022-12-07T08:00:22;14.32;;;9.82;;
35225;SDS011;21813;49.686;21.766;2022-12-07T08:02:55;12.55;;;9.65;;
35225;SDS011;21813;49.686;21.766;2022-12-07T08:05:21;11.73;;;8.40;;
35225;SDS011;21813;49.686;21.766;2022-12-07T08:07:47;13.80;;;8.30;;
35225;SDS011;21813;49.686;21.766;2022-12-07T08:10:16;14.77;;;9.70;;
35225;SDS011;21813;49.686;21.766;2022-12-07T08:12:42;13.50;;;9.10;;
35225;SDS011;21813;49.686;21.766;2022-12-07T08:18:35;12.52;;;9.38;;
35225;SDS011;21813;49.686;21.766;2022-12-07T08:21:02;16.55;;;10.88;;
35225;SDS011;21813;49.686;21.766;2022-12-07T08:23:31;16.98;;;11.00;;
35225;SDS011;21813;49.686;21.766;2022-12-07T08:26:00;16.42;;;11.05;;
35225;SDS011;21813;49.686;21.766;2022-12-07T08:28:31;17.58;;;11.25;;
35225;SDS011;21813;49.686;21.766;2022-12-07T08:31:01;19.83;;;12.00;;
35225;SDS011;21813;49.686;21.766;2022-12-07T08:33:28;19.58;;;11.63;;
35225;SDS011;21813;49.686;21.766;2022-12-07T08:35:53;15.90;;;11.10;;
35225;SDS011;21813;49.686;21.766;2022-12-07T08:38:19;18.52;;;10.73;;
35225;SDS011;21813;49.686;21.766;2022-12-07T08:40:52;15.88;;;10.57;;
35225;SDS011;21813;49.686;21.766;2022-12-07T08:43:22;15.13;;;10.13;;
35225;SDS011;21813;49.686;21.766;2022-12-07T08:45:49;16.08;;;10.02;;
35225;SDS011;21813;49.686;21.766;2022-12-07T08:48:29;10.20;;;7.30;;
35225;SDS011;21813;49.686;21.766;2022-12-07T08:50:56;12.88;;;9.85;;
35225;SDS011;21813;49.686;21.766;2022-12-07T08:53:22;12.90;;;9.52;;
35225;SDS011;21813;49.686;21.766;2022-12-07T08:55:48;13.35;;;9.60;;
35225;SDS011;21813;49.686;21.766;2022-12-07T08:58:15;13.52;;;9.82;;
35225;SDS011;21813;49.686;21.766;2022-12-07T09:00:40;12.05;;;9.85;;
35225;SDS011;21813;49.686;21.766;2022-12-07T09:03:09;13.48;;;9.52;;
35225;SDS011;21813;49.686;21.766;2022-12-07T09:05:35;14.02;;;10.27;;
35225;SDS011;21813;49.686;21.766;2022-12-07T09:08:05;17.40;;;11.43;;
35225;SDS011;21813;49.686;21.766;2022-12-07T09:10:31;12.90;;;9.90;;
35225;SDS011;21813;49.686;21.766;2022-12-07T09:12:58;13.38;;;8.80;;
35225;SDS011;21813;49.686;21.766;2022-12-07T09:15:27;12.15;;;9.15;;
35225;SDS011;21813;49.686;21.766;2022-12-07T09:17:54;11.88;;;9.20;;
35225;SDS011;21813;49.686;21.766;2022-12-07T09:20:20;12.20;;;8.85;;
35225;SDS011;21813;49.686;21.766;2022-12-07T09:22:48;12.05;;;9.10;;
35225;SDS011;21813;49.686;21.766;2022-12-07T09:25:13;14.20;;;9.88;;
35225;SDS011;21813;49.686;21.766;2022-12-07T09:27:40;14.07;;;9.68;;
35225;SDS011;21813;49.686;21.766;2022-12-07T09:30:07;11.02;;;9.32;;
35225;SDS011;21813;49.686;21.766;2022-12-07T09:32:34;13.45;;;9.00;;
35225;SDS011;21813;49.686;21.766;2022-12-07T09:34:59;13.35;;;9.07;;
35225;SDS011;21813;49.686;21.766;2022-12-07T09:37:26;15.02;;;9.63;;
35225;SDS011;21813;49.686;21.766;2022-12-07T09:39:52;15.43;;;9.98;;
35225;SDS011;21813;49.686;21.766;2022-12-07T09:42:41;15.52;;;10.27;;
35225;SDS011;21813;49.686;21.766;2022-12-07T09:45:15;14.55;;;11.18;;
35225;SDS011;21813;49.686;21.766;2022-12-07T09:47:45;17.48;;;9.70;;
35225;SDS011;21813;49.686;21.766;2022-12-07T09:50:20;15.88;;;9.95;;
35225;SDS011;21813;49.686;21.766;2022-12-07T09:52:52;18.35;;;11.10;;
35225;SDS011;21813;49.686;21.766;2022-12-07T09:55:25;16.95;;;10.73;;
35225;SDS011;21813;49.686;21.766;2022-12-07T09:57:55;19.55;;;11.25;;
35225;SDS011;21813;49.686;21.766;2022-12-07T10:00:23;20.98;;;12.68;;
35225;SDS011;21813;49.686;21.766;2022-12-07T10:05:28;16.02;;;9.52;;
35225;SDS011;21813;49.686;21.766;2022-12-07T10:08:05;13.45;;;9.10;;
35225;SDS011;21813;49.686;21.766;2022-12-07T10:10:31;16.13;;;9.88;;
35225;SDS011;21813;49.686;21.766;2022-12-07T10:13:05;13.40;;;8.85;;
35225;SDS011;21813;49.686;21.766;2022-12-07T10:15:45;13.00;;;8.65;;
35225;SDS011;21813;49.686;21.766;2022-12-07T10:21:15;28.00;;;11.75;;
35225;SDS011;21813;49.686;21.766;2022-12-07T10:24:00;16.50;;;10.35;;
35225;SDS011;21813;49.686;21.766;2022-12-07T10:29:17;11.88;;;8.15;;
35225;SDS011;21813;49.686;21.766;2022-12-07T10:31:56;17.77;;;10.10;;
35225;SDS011;21813;49.686;21.766;2022-12-07T10:45:03;15.05;;;9.05;;
35225;SDS011;21813;49.686;21.766;2022-12-07T10:50:14;13.02;;;8.55;;
35225;SDS011;21813;49.686;21.766;2022-12-07T11:00:37;16.73;;;10.27;;
35225;SDS011;21813;49.686;21.766;2022-12-07T11:11:34;11.52;;;9.23;;
35225;SDS011;21813;49.686;21.766;2022-12-07T11:22:13;11.40;;;9.13;;
35225;SDS011;21813;49.686;21.766;2022-12-07T11:30:21;19.30;;;10.52;;
35225;SDS011;21813;49.686;21.766;2022-12-07T11:38:18;18.50;;;12.00;;
35225;SDS011;21813;49.686;21.766;2022-12-07T11:40:50;18.45;;;10.32;;
35225;SDS011;21813;49.686;21.766;2022-12-07T11:43:53;19.33;;;11.30;;
35225;SDS011;21813;49.686;21.766;2022-12-07T11:46:42;17.50;;;11.02;;
35225;SDS011;21813;49.686;21.766;2022-12-07T11:49:23;18.90;;;11.05;;
35225;SDS011;21813;49.686;21.766;2022-12-07T11:55:01;19.52;;;12.48;;
35225;SDS011;21813;49.686;21.766;2022-12-07T11:57:41;17.40;;;11.85;;
35225;SDS011;21813;49.686;21.766;2022-12-07T12:00:14;19.33;;;12.27;;
35225;SDS011;21813;49.686;21.766;2022-12-07T12:02:50;17.27;;;11.68;;
35225;SDS011;21813;49.686;21.766;2022-12-07T12:05:23;20.58;;;12.95;;
35225;SDS011;21813;49.686;21.766;2022-12-07T12:08:06;18.13;;;12.40;;
35225;SDS011;21813;49.686;21.766;2022-12-07T12:10:40;15.70;;;10.82;;
35225;SDS011;21813;49.686;21.766;2022-12-07T12:13:34;19.52;;;12.35;;
35225;SDS011;21813;49.686;21.766;2022-12-07T12:21:26;18.25;;;12.25;;
35225;SDS011;21813;49.686;21.766;2022-12-07T12:23:58;17.42;;;11.40;;
35225;SDS011;21813;49.686;21.766;2022-12-07T12:26:32;21.27;;;13.27;;
35225;SDS011;21813;49.686;21.766;2022-12-07T12:32:06;20.85;;;12.98;;
35225;SDS011;21813;49.686;21.766;2022-12-07T12:42:43;21.52;;;12.57;;
35225;SDS011;21813;49.686;21.766;2022-12-07T12:45:23;21.08;;;13.27;;
35225;SDS011;21813;49.686;21.766;2022-12-07T12:47:59;21.42;;;14.07;;
35225;SDS011;21813;49.686;21.766;2022-12-07T12:50:38;23.45;;;13.32;;
35225;SDS011;21813;49.686;21.766;2022-12-07T12:53:25;21.05;;;14.10;;
35225;SDS011;21813;49.686;21.766;2022-12-07T12:56:04;23.85;;;14.38;;
35225;SDS011;21813;49.686;21.766;2022-12-07T12:58:46;25.85;;;14.73;;
35225;SDS011;21813;49.686;21.766;2022-12-07T13:03:59;22.00;;;14.15;;
35225;SDS011;21813;49.686;21.766;2022-12-07T13:09:01;23.08;;;14.20;;
35225;SDS011;21813;49.686;21.766;2022-12-07T13:11:34;27.95;;;15.57;;
35225;SDS011;21813;49.686;21.766;2022-12-07T13:20:03;28.63;;;15.35;;
35225;SDS011;21813;49.686;21.766;2022-12-07T13:25:12;30.23;;;17.98;;
35225;SDS011;21813;49.686;21.766;2022-12-07T13:28:01;28.35;;;17.50;;
35225;SDS011;21813;49.686;21.766;2022-12-07T13:30:47;30.05;;;18.15;;
35225;SDS011;21813;49.686;21.766;2022-12-07T13:33:23;31.27;;;18.52;;
35225;SDS011;21813;49.686;21.766;2022-12-07T13:36:02;30.77;;;19.48;;
35225;SDS011;21813;49.686;21.766;2022-12-07T13:39:27;32.30;;;18.90;;
35225;SDS011;21813;49.686;21.766;2022-12-07T13:41:55;30.08;;;18.40;;
35225;SDS011;21813;49.686;21.766;2022-12-07T13:44:23;27.77;;;17.38;;
35225;SDS011;21813;49.686;21.766;2022-12-07T13:49:49;27.48;;;18.08;;
35225;SDS011;21813;49.686;21.766;2022-12-07T13:52:33;36.88;;;20.00;;
35225;SDS011;21813;49.686;21.766;2022-12-07T13:55:14;34.92;;;20.00;;
35225;SDS011;21813;49.686;21.766;2022-12-07T13:57:50;41.95;;;22.65;;
35225;SDS011;21813;49.686;21.766;2022-12-07T14:00:21;38.33;;;22.95;;
35225;SDS011;21813;49.686;21.766;2022-12-07T14:02:57;39.95;;;20.10;;
35225;SDS011;21813;49.686;21.766;2022-12-07T14:05:31;33.47;;;20.50;;
35225;SDS011;21813;49.686;21.766;2022-12-07T14:08:03;24.70;;;15.50;;
35225;SDS011;21813;49.686;21.766;2022-12-07T14:22:41;32.15;;;18.63;;
35225;SDS011;21813;49.686;21.766;2022-12-07T14:25:19;32.03;;;19.27;;
35225;SDS011;21813;49.686;21.766;2022-12-07T14:28:34;40.28;;;21.45;;
35225;SDS011;21813;49.686;21.766;2022-12-07T14:31:02;40.33;;;21.60;;
35225;SDS011;21813;49.686;21.766;2022-12-07T14:39:09;35.85;;;20.48;;
35225;SDS011;21813;49.686;21.766;2022-12-07T14:41:35;36.17;;;22.27;;
35225;SDS011;21813;49.686;21.766;2022-12-07T14:44:27;45.28;;;22.17;;
35225;SDS011;21813;49.686;21.766;2022-12-07T14:46:59;40.20;;;23.02;;
35225;SDS011;21813;49.686;21.766;2022-12-07T14:49:29;52.97;;;25.48;;
35225;SDS011;21813;49.686;21.766;2022-12-07T14:51:55;48.95;;;26.67;;
35225;SDS011;21813;49.686;21.766;2022-12-07T15:10:28;33.80;;;20.02;;
35225;SDS011;21813;49.686;21.766;2022-12-07T15:20:07;38.22;;;21.40;;
35225;SDS011;21813;49.686;21.766;2022-12-07T15:23:20;38.45;;;21.52;;
35225;SDS011;21813;49.686;21.766;2022-12-07T15:29:37;39.08;;;21.00;;
35225;SDS011;21813;49.686;21.766;2022-12-07T15:32:43;43.45;;;22.73;;
35225;SDS011;21813;49.686;21.766;2022-12-07T15:38:49;51.35;;;23.90;;
35225;SDS011;21813;49.686;21.766;2022-12-07T15:47:12;39.35;;;21.45;;
35225;SDS011;21813;49.686;21.766;2022-12-07T15:50:29;32.35;;;18.90;;
35225;SDS011;21813;49.686;21.766;2022-12-07T15:52:55;36.05;;;20.50;;
35225;SDS011;21813;49.686;21.766;2022-12-07T15:55:30;36.17;;;20.77;;
35225;SDS011;21813;49.686;21.766;2022-12-07T15:58:10;37.95;;;21.20;;
35225;SDS011;21813;49.686;21.766;2022-12-07T16:00:42;40.15;;;22.75;;
35225;SDS011;21813;49.686;21.766;2022-12-07T16:03:29;38.50;;;21.17;;
35225;SDS011;21813;49.686;21.766;2022-12-07T16:06:01;40.03;;;21.98;;
35225;SDS011;21813;49.686;21.766;2022-12-07T16:08:30;41.95;;;22.65;;
35225;SDS011;21813;49.686;21.766;2022-12-07T16:11:29;40.05;;;22.00;;
35225;SDS011;21813;49.686;21.766;2022-12-07T16:13:56;43.10;;;23.80;;
35225;SDS011;21813;49.686;21.766;2022-12-07T16:16:22;45.63;;;23.33;;
35225;SDS011;21813;49.686;21.766;2022-12-07T16:18:50;47.05;;;24.60;;
35225;SDS011;21813;49.686;21.766;2022-12-07T16:21:16;46.20;;;24.75;;
35225;SDS011;21813;49.686;21.766;2022-12-07T16:23:43;41.67;;;24.02;;
35225;SDS011;21813;49.686;21.766;2022-12-07T16:26:14;40.85;;;22.10;;
35225;SDS011;21813;49.686;21.766;2022-12-07T16:28:43;40.60;;;23.10;;
35225;SDS011;21813;49.686;21.766;2022-12-07T16:31:10;44.30;;;22.45;;
35225;SDS011;21813;49.686;21.766;2022-12-07T16:33:40;45.17;;;21.58;;
35225;SDS011;21813;49.686;21.766;2022-12-07T16:36:08;45.25;;;24.35;;
35225;SDS011;21813;49.686;21.766;2022-12-07T16:38:36;45.35;;;23.80;;
35225;SDS011;21813;49.686;21.766;2022-12-07T16:41:02;44.60;;;22.95;;
35225;SDS011;21813;49.686;21.766;2022-12-07T16:43:36;49.33;;;27.35;;
35225;SDS011;21813;49.686;21.766;2022-12-07T16:46:02;44.47;;;23.35;;
35225;SDS011;21813;49.686;21.766;2022-12-07T16:48:30;41.13;;;22.73;;
35225;SDS011;21813;49.686;21.766;2022-12-07T16:50:56;41.85;;;23.08;;
35225;SDS011;21813;49.686;21.766;2022-12-07T16:53:25;45.05;;;24.83;;
35225;SDS011;21813;49.686;21.766;2022-12-07T16:55:51;47.53;;;24.38;;
35225;SDS011;21813;49.686;21.766;2022-12-07T16:58:18;51.97;;;26.33;;
35225;SDS011;21813;49.686;21.766;2022-12-07T17:00:44;48.00;;;24.77;;
35225;SDS011;21813;49.686;21.766;2022-12-07T17:03:13;46.60;;;25.38;;
35225;SDS011;21813;49.686;21.766;2022-12-07T17:05:39;52.33;;;27.63;;
35225;SDS011;21813;49.686;21.766;2022-12-07T17:08:09;45.55;;;24.30;;
35225;SDS011;21813;49.686;21.766;2022-12-07T17:10:39;46.17;;;25.63;;
35225;SDS011;21813;49.686;21.766;2022-12-07T17:13:13;45.33;;;25.08;;
35225;SDS011;21813;49.686;21.766;2022-12-07T17:16:16;47.75;;;25.08;;
35225;SDS011;21813;49.686;21.766;2022-12-07T17:19:15;50.22;;;26.40;;
35225;SDS011;21813;49.686;21.766;2022-12-07T17:21:44;48.03;;;26.23;;
35225;SDS011;21813;49.686;21.766;2022-12-07T17:24:12;46.08;;;25.15;;
35225;SDS011;21813;49.686;21.766;2022-12-07T17:26:41;52.83;;;26.33;;
35225;SDS011;21813;49.686;21.766;2022-12-07T17:29:08;47.05;;;26.77;;
35225;SDS011;21813;49.686;21.766;2022-12-07T17:31:36;50.17;;;25.83;;
35225;SDS011;21813;49.686;21.766;2022-12-07T17:34:02;47.75;;;27.02;;
35225;SDS011;21813;49.686;21.766;2022-12-07T17:36:30;47.75;;;26.75;;
35225;SDS011;21813;49.686;21.766;2022-12-07T17:38:56;47.72;;;26.50;;
35225;SDS011;21813;49.686;21.766;2022-12-07T17:41:24;50.38;;;26.83;;
35225;SDS011;21813;49.686;21.766;2022-12-07T17:44:11;50.15;;;26.48;;
35225;SDS011;21813;49.686;21.766;2022-12-07T17:46:40;48.88;;;28.10;;
35225;SDS011;21813;49.686;21.766;2022-12-07T17:49:06;52.88;;;27.52;;
35225;SDS011;21813;49.686;21.766;2022-12-07T17:51:32;47.63;;;26.55;;
35225;SDS011;21813;49.686;21.766;2022-12-07T17:54:17;46.38;;;24.45;;
35225;SDS011;21813;49.686;21.766;2022-12-07T17:56:43;44.60;;;24.17;;
35225;SDS011;21813;49.686;21.766;2022-12-07T17:59:09;42.80;;;23.38;;
35225;SDS011;21813;49.686;21.766;2022-12-07T18:01:36;41.40;;;23.73;;
35225;SDS011;21813;49.686;21.766;2022-12-07T18:04:03;40.88;;;22.92;;
35225;SDS011;21813;49.686;21.766;2022-12-07T18:06:31;42.60;;;22.30;;
35225;SDS011;21813;49.686;21.766;2022-12-07T18:08:57;44.80;;;22.17;;
35225;SDS011;21813;49.686;21.766;2022-12-07T18:11:24;39.13;;;22.20;;
35225;SDS011;21813;49.686;21.766;2022-12-07T18:13:50;42.15;;;21.98;;
35225;SDS011;21813;49.686;21.766;2022-12-07T18:16:17;42.47;;;22.35;;